RYR42G LHBP-EDDS
Flight info
| Callsign | RYR42G |
|---|---|
| Flight time | N/A |
| Altitude | 34000 |
| Route | GILEP DCT ZOLKU DCT ABETI DCT BARUG DCT LIMRA DCT TITIG L173 DODIL T127 TEKSI TEKSI1W |
| Aircraft | B738/M-SDE2E3FGHIRWXY/LB1 |
Departure
| Time | 2026-05-04 19:25 |
|---|---|
| Airport | Budapest Liszt Ferenc International Airport (LHBP) |
Arrival
| Time | N/A |
|---|---|
| Airport | Stuttgart Airport (EDDS) |
| Time | Latitude | Longitude | Altitude | Speed | Heading |
|---|---|---|---|---|---|
| 2026-05-04 18:56 | 47.43543 | 19.26037 | 478 ft | 0 kts | 178° |
| 2026-05-04 18:57 | 47.43581 | 19.25864 | 474 ft | 0 kts | 318° |
| 2026-05-04 19:17 | 47.43575 | 19.25873 | 483 ft | 4 kts | 319° |
| 2026-05-04 19:17 | 47.43559 | 19.25894 | 481 ft | 4 kts | 322° |
| 2026-05-04 19:18 | 47.43545 | 19.25901 | 476 ft | 3 kts | 42° |
| 2026-05-04 19:18 | 47.43530 | 19.25880 | 473 ft | 3 kts | 44° |
| 2026-05-04 19:18 | 47.43511 | 19.25854 | 477 ft | 4 kts | 42° |
| 2026-05-04 19:18 | 47.43505 | 19.25845 | 475 ft | 1 kts | 42° |
| 2026-05-04 19:21 | 47.43507 | 19.25848 | 475 ft | 2 kts | 42° |
| 2026-05-04 19:21 | 47.43528 | 19.25876 | 473 ft | 7 kts | 42° |
| 2026-05-04 19:22 | 47.43576 | 19.25941 | 479 ft | 12 kts | 43° |
| 2026-05-04 19:22 | 47.43648 | 19.26037 | 478 ft | 15 kts | 27° |
| 2026-05-04 19:22 | 47.43728 | 19.25979 | 481 ft | 11 kts | 309° |
| 2026-05-04 19:22 | 47.43789 | 19.25985 | 487 ft | 10 kts | 39° |
| 2026-05-04 19:23 | 47.43848 | 19.26063 | 491 ft | 13 kts | 44° |
| 2026-05-04 19:23 | 47.43921 | 19.26163 | 484 ft | 15 kts | 42° |
| 2026-05-04 19:23 | 47.43981 | 19.26244 | 494 ft | 6 kts | 42° |
| 2026-05-04 19:23 | 47.44008 | 19.26278 | 484 ft | 5 kts | 40° |
| 2026-05-04 19:24 | 47.44036 | 19.26320 | 485 ft | 8 kts | 52° |
| 2026-05-04 19:24 | 47.44067 | 19.26430 | 485 ft | 15 kts | 78° |
| 2026-05-04 19:24 | 47.44057 | 19.26547 | 483 ft | 12 kts | 135° |
| 2026-05-04 19:24 | 47.43989 | 19.26655 | 487 ft | 20 kts | 131° |
| 2026-05-04 19:25 | 47.43740 | 19.27055 | 491 ft | 87 kts | 132° |
| 2026-05-04 19:25 | 47.43188 | 19.27944 | 491 ft | 145 kts | 132° |
| 2026-05-04 19:25 | 47.42433 | 19.29144 | 850 ft | 161 kts | 133° |
| 2026-05-04 19:25 | 47.41732 | 19.30398 | 1567 ft | 165 kts | 120° |
| 2026-05-04 19:26 | 47.41250 | 19.31951 | 2194 ft | 168 kts | 122° |
| 2026-05-04 19:26 | 47.40662 | 19.33558 | 2525 ft | 192 kts | 124° |
| 2026-05-04 19:26 | 47.39962 | 19.35393 | 2717 ft | 218 kts | 123° |
| 2026-05-04 19:26 | 47.39170 | 19.37416 | 2979 ft | 235 kts | 124° |
| 2026-05-04 19:27 | 47.38262 | 19.39516 | 3305 ft | 253 kts | 134° |
| 2026-05-04 19:27 | 47.36778 | 19.40890 | 3822 ft | 254 kts | 170° |
| 2026-05-04 19:27 | 47.35032 | 19.40765 | 4547 ft | 257 kts | 199° |
| 2026-05-04 19:27 | 47.33522 | 19.39346 | 5210 ft | 262 kts | 228° |
| 2026-05-04 19:28 | 47.32511 | 19.37106 | 5978 ft | 266 kts | 239° |
| 2026-05-04 19:28 | 47.31621 | 19.34698 | 6691 ft | 270 kts | 240° |
| 2026-05-04 19:28 | 47.30725 | 19.32259 | 7424 ft | 272 kts | 240° |
| 2026-05-04 19:28 | 47.29855 | 19.29761 | 8182 ft | 276 kts | 249° |
| 2026-05-04 19:29 | 47.29733 | 19.26943 | 8947 ft | 283 kts | 281° |
| 2026-05-04 19:29 | 47.30234 | 19.24163 | 9754 ft | 286 kts | 283° |
| 2026-05-04 19:29 | 47.30779 | 19.21315 | 10403 ft | 294 kts | 284° |
| 2026-05-04 19:29 | 47.31356 | 19.18291 | 10583 ft | 319 kts | 284° |
| 2026-05-04 19:30 | 47.31963 | 19.15053 | 10953 ft | 335 kts | 283° |
| 2026-05-04 19:30 | 47.32577 | 19.11707 | 11606 ft | 340 kts | 283° |
| 2026-05-04 19:30 | 47.33192 | 19.08318 | 12375 ft | 343 kts | 283° |
| 2026-05-04 19:30 | 47.33806 | 19.04898 | 13144 ft | 347 kts | 283° |
| 2026-05-04 19:31 | 47.34424 | 19.01440 | 13909 ft | 351 kts | 283° |
| 2026-05-04 19:31 | 47.35050 | 18.97932 | 14631 ft | 355 kts | 283° |
| 2026-05-04 19:31 | 47.35679 | 18.94398 | 15401 ft | 357 kts | 283° |
| 2026-05-04 19:31 | 47.36308 | 18.90845 | 16152 ft | 361 kts | 283° |
| 2026-05-04 19:32 | 47.36940 | 18.87252 | 16893 ft | 364 kts | 283° |
| 2026-05-04 19:32 | 47.37578 | 18.83612 | 17631 ft | 368 kts | 283° |
| 2026-05-04 19:32 | 47.38219 | 18.79937 | 18355 ft | 372 kts | 284° |
| 2026-05-04 19:32 | 47.38865 | 18.76230 | 18993 ft | 375 kts | 283° |
| 2026-05-04 19:33 | 47.39514 | 18.72497 | 19647 ft | 377 kts | 284° |
| 2026-05-04 19:33 | 47.40167 | 18.68728 | 20269 ft | 380 kts | 284° |
| 2026-05-04 19:33 | 47.40826 | 18.64924 | 20897 ft | 384 kts | 284° |
| 2026-05-04 19:33 | 47.41486 | 18.61098 | 21500 ft | 387 kts | 284° |
| 2026-05-04 19:34 | 47.42152 | 18.57233 | 22129 ft | 389 kts | 284° |
| 2026-05-04 19:34 | 47.42820 | 18.53349 | 22781 ft | 391 kts | 284° |
| 2026-05-04 19:34 | 47.43491 | 18.49440 | 23362 ft | 395 kts | 284° |
| 2026-05-04 19:34 | 47.44157 | 18.45545 | 23852 ft | 398 kts | 284° |
| 2026-05-04 19:35 | 47.44838 | 18.41557 | 24325 ft | 401 kts | 284° |
| 2026-05-04 19:35 | 47.45522 | 18.37546 | 24792 ft | 404 kts | 284° |
| 2026-05-04 19:35 | 47.46209 | 18.33504 | 25257 ft | 406 kts | 284° |
| 2026-05-04 19:35 | 47.46896 | 18.29449 | 25705 ft | 409 kts | 284° |
| 2026-05-04 19:36 | 47.47590 | 18.25347 | 26160 ft | 412 kts | 284° |
| 2026-05-04 19:36 | 47.48285 | 18.21228 | 26597 ft | 414 kts | 284° |
| 2026-05-04 19:36 | 47.48984 | 18.17080 | 27052 ft | 416 kts | 284° |
| 2026-05-04 19:36 | 47.49683 | 18.12918 | 27483 ft | 418 kts | 284° |
| 2026-05-04 19:37 | 47.50385 | 18.08725 | 27882 ft | 422 kts | 284° |
| 2026-05-04 19:37 | 47.51095 | 18.04482 | 28281 ft | 424 kts | 284° |
| 2026-05-04 19:37 | 47.51800 | 18.00248 | 28809 ft | 423 kts | 284° |
| 2026-05-04 19:37 | 47.52500 | 17.96036 | 29436 ft | 420 kts | 284° |
| 2026-05-04 19:38 | 47.53194 | 17.91855 | 30042 ft | 418 kts | 284° |
| 2026-05-04 19:38 | 47.53884 | 17.87686 | 30480 ft | 417 kts | 284° |
| 2026-05-04 19:38 | 47.54572 | 17.83513 | 30930 ft | 416 kts | 284° |
| 2026-05-04 19:38 | 47.55249 | 17.79407 | 31423 ft | 414 kts | 284° |
| 2026-05-04 19:39 | 47.55928 | 17.75270 | 31915 ft | 412 kts | 284° |
| 2026-05-04 19:39 | 47.56603 | 17.71150 | 32394 ft | 410 kts | 284° |
| 2026-05-04 19:39 | 47.57272 | 17.67059 | 32859 ft | 408 kts | 284° |
| 2026-05-04 19:39 | 47.57936 | 17.62984 | 33307 ft | 406 kts | 284° |
| 2026-05-04 19:40 | 47.58597 | 17.58924 | 33750 ft | 405 kts | 284° |
| 2026-05-04 19:40 | 47.59256 | 17.54865 | 34012 ft | 407 kts | 284° |
| 2026-05-04 19:40 | 47.59921 | 17.50762 | 34001 ft | 411 kts | 284° |
| 2026-05-04 19:41 | 47.61241 | 17.42577 | 33973 ft | 404 kts | 284° |
| 2026-05-04 19:41 | 47.62531 | 17.34534 | 33979 ft | 401 kts | 284° |
| 2026-05-04 19:42 | 47.63808 | 17.26541 | 33979 ft | 401 kts | 284° |
| 2026-05-04 19:42 | 47.65092 | 17.18468 | 33970 ft | 402 kts | 284° |
| 2026-05-04 19:43 | 47.66369 | 17.10395 | 33961 ft | 403 kts | 284° |
| 2026-05-04 19:43 | 47.67644 | 17.02300 | 33968 ft | 403 kts | 284° |
| 2026-05-04 19:44 | 47.68838 | 16.94160 | 33967 ft | 403 kts | 282° |
| 2026-05-04 19:44 | 47.69952 | 16.85999 | 33955 ft | 403 kts | 281° |
| 2026-05-04 19:45 | 47.71038 | 16.78024 | 33957 ft | 394 kts | 281° |
| 2026-05-04 19:45 | 47.72142 | 16.69947 | 33963 ft | 404 kts | 281° |
| 2026-05-04 19:46 | 47.73260 | 16.61753 | 33965 ft | 411 kts | 281° |
| 2026-05-04 19:46 | 47.74412 | 16.53271 | 33958 ft | 424 kts | 281° |
| 2026-05-04 19:47 | 47.75589 | 16.44557 | 33959 ft | 436 kts | 281° |
| 2026-05-04 19:47 | 47.76790 | 16.35604 | 33950 ft | 446 kts | 281° |
| 2026-05-04 19:48 | 47.77999 | 16.26537 | 33932 ft | 447 kts | 281° |
| 2026-05-04 19:48 | 47.79202 | 16.17458 | 33928 ft | 448 kts | 281° |
| 2026-05-04 19:49 | 47.80391 | 16.08424 | 33945 ft | 448 kts | 281° |
| 2026-05-04 19:49 | 47.81583 | 15.99317 | 33943 ft | 449 kts | 281° |
| 2026-05-04 19:50 | 47.82769 | 15.90186 | 33938 ft | 449 kts | 281° |
| 2026-05-04 19:50 | 47.83947 | 15.81056 | 33943 ft | 449 kts | 280° |
| 2026-05-04 19:51 | 47.85117 | 15.71938 | 33951 ft | 447 kts | 279° |
| 2026-05-04 19:51 | 47.86273 | 15.62865 | 33946 ft | 445 kts | 280° |
| 2026-05-04 19:52 | 47.87422 | 15.53782 | 33940 ft | 445 kts | 279° |
| 2026-05-04 19:52 | 47.88563 | 15.44719 | 33930 ft | 444 kts | 279° |
| 2026-05-04 19:53 | 47.89672 | 15.35665 | 33928 ft | 444 kts | 277° |
| 2026-05-04 19:53 | 47.89999 | 15.26531 | 33930 ft | 445 kts | 270° |
| 2026-05-04 19:54 | 47.90086 | 15.17284 | 33923 ft | 447 kts | 270° |
| 2026-05-04 19:54 | 47.90203 | 15.07992 | 33930 ft | 448 kts | 270° |
| 2026-05-04 19:55 | 47.90349 | 14.98690 | 33914 ft | 448 kts | 270° |
| 2026-05-04 19:55 | 47.90498 | 14.89457 | 33918 ft | 449 kts | 270° |
| 2026-05-04 19:56 | 47.90638 | 14.80175 | 33904 ft | 448 kts | 270° |
| 2026-05-04 19:56 | 47.90770 | 14.70898 | 33909 ft | 447 kts | 270° |
| 2026-05-04 19:57 | 47.90894 | 14.61621 | 33906 ft | 447 kts | 269° |
| 2026-05-04 19:57 | 47.91012 | 14.52318 | 33894 ft | 448 kts | 269° |
| 2026-05-04 19:58 | 47.91115 | 14.44591 | 33893 ft | 449 kts | 271° |
| 2026-05-04 19:58 | 47.91774 | 14.35323 | 33910 ft | 450 kts | 276° |
| 2026-05-04 19:59 | 47.92643 | 14.26070 | 33897 ft | 450 kts | 276° |
| 2026-05-04 19:59 | 47.93481 | 14.16815 | 33892 ft | 450 kts | 276° |
| 2026-05-04 20:00 | 47.94273 | 14.07547 | 33901 ft | 450 kts | 275° |
| 2026-05-04 20:00 | 47.95042 | 13.98286 | 33897 ft | 449 kts | 275° |
| 2026-05-04 20:01 | 47.95795 | 13.89102 | 33899 ft | 448 kts | 275° |
| 2026-05-04 20:01 | 47.96546 | 13.79864 | 33892 ft | 448 kts | 275° |
| 2026-05-04 20:02 | 47.97287 | 13.70660 | 33895 ft | 447 kts | 275° |
| 2026-05-04 20:02 | 47.98023 | 13.61440 | 33900 ft | 447 kts | 275° |
| 2026-05-04 20:03 | 47.98750 | 13.52227 | 33889 ft | 446 kts | 274° |
| 2026-05-04 20:03 | 47.99464 | 13.43076 | 33894 ft | 446 kts | 274° |
| 2026-05-04 20:04 | 48.00175 | 13.33884 | 33893 ft | 446 kts | 274° |
| 2026-05-04 20:04 | 48.00879 | 13.24673 | 33903 ft | 446 kts | 274° |
| 2026-05-04 20:05 | 48.01576 | 13.15461 | 33894 ft | 446 kts | 274° |
| 2026-05-04 20:05 | 48.02264 | 13.06258 | 33892 ft | 446 kts | 274° |
| 2026-05-04 20:06 | 48.02943 | 12.97085 | 33890 ft | 447 kts | 274° |
| 2026-05-04 20:06 | 48.03619 | 12.87860 | 33891 ft | 447 kts | 274° |
| 2026-05-04 20:07 | 48.04287 | 12.78625 | 33900 ft | 447 kts | 273° |
| 2026-05-04 20:07 | 48.04950 | 12.69367 | 33900 ft | 447 kts | 273° |
| 2026-05-04 20:08 | 48.05605 | 12.60116 | 33899 ft | 447 kts | 273° |
| 2026-05-04 20:08 | 48.06923 | 12.51046 | 33927 ft | 452 kts | 287° |
| 2026-05-04 20:09 | 48.09111 | 12.42208 | 33910 ft | 453 kts | 287° |
| 2026-05-04 20:09 | 48.11203 | 12.33326 | 33912 ft | 453 kts | 286° |
| 2026-05-04 20:10 | 48.13274 | 12.24431 | 33914 ft | 453 kts | 286° |
| 2026-05-04 20:10 | 48.15339 | 12.15549 | 33920 ft | 452 kts | 285° |
| 2026-05-04 20:11 | 48.16528 | 12.06367 | 33947 ft | 447 kts | 272° |
| 2026-05-04 20:11 | 48.17038 | 11.97070 | 33941 ft | 448 kts | 272° |
| 2026-05-04 20:12 | 48.17610 | 11.87753 | 33936 ft | 449 kts | 273° |
| 2026-05-04 20:12 | 48.18402 | 11.78524 | 33935 ft | 452 kts | 280° |
| 2026-05-04 20:13 | 48.19779 | 11.70381 | 33942 ft | 452 kts | 282° |